sensor_id;sensor_type;location;lat;lon;timestamp;temperature;humidity
12819;DHT22;6474;53.474;9.894;2023-11-21T00:00:03;9.80;94.90
12819;DHT22;6474;53.474;9.894;2023-11-21T00:02:38;9.80;94.90
12819;DHT22;6474;53.474;9.894;2023-11-21T00:05:07;9.80;94.90
12819;DHT22;6474;53.474;9.894;2023-11-21T00:07:36;9.80;94.90
12819;DHT22;6474;53.474;9.894;2023-11-21T00:10:04;9.80;94.90
12819;DHT22;6474;53.474;9.894;2023-11-21T00:12:35;9.80;94.90
12819;DHT22;6474;53.474;9.894;2023-11-21T00:15:03;9.80;94.90
12819;DHT22;6474;53.474;9.894;2023-11-21T00:17:32;9.80;94.90
12819;DHT22;6474;53.474;9.894;2023-11-21T00:20:02;9.80;94.90
12819;DHT22;6474;53.474;9.894;2023-11-21T00:22:33;9.80;94.90
12819;DHT22;6474;53.474;9.894;2023-11-21T00:25:01;9.80;94.90
12819;DHT22;6474;53.474;9.894;2023-11-21T00:27:30;9.80;94.80
12819;DHT22;6474;53.474;9.894;2023-11-21T00:29:58;9.80;94.80
12819;DHT22;6474;53.474;9.894;2023-11-21T00:32:26;9.70;94.80
12819;DHT22;6474;53.474;9.894;2023-11-21T00:34:54;9.70;94.80
12819;DHT22;6474;53.474;9.894;2023-11-21T00:37:23;9.70;94.90
12819;DHT22;6474;53.474;9.894;2023-11-21T00:39:51;9.60;94.90
12819;DHT22;6474;53.474;9.894;2023-11-21T00:42:19;9.60;94.90
12819;DHT22;6474;53.474;9.894;2023-11-21T00:44:48;9.60;94.90
12819;DHT22;6474;53.474;9.894;2023-11-21T00:47:16;9.50;94.90
12819;DHT22;6474;53.474;9.894;2023-11-21T00:49:44;9.50;94.90
12819;DHT22;6474;53.474;9.894;2023-11-21T00:52:12;9.50;94.90
12819;DHT22;6474;53.474;9.894;2023-11-21T00:54:42;9.50;94.90
12819;DHT22;6474;53.474;9.894;2023-11-21T00:57:10;9.40;94.90
12819;DHT22;6474;53.474;9.894;2023-11-21T00:59:38;9.40;94.90
12819;DHT22;6474;53.474;9.894;2023-11-21T01:02:06;9.30;94.90
12819;DHT22;6474;53.474;9.894;2023-11-21T01:04:36;9.30;94.90
12819;DHT22;6474;53.474;9.894;2023-11-21T01:07:05;9.20;94.90
12819;DHT22;6474;53.474;9.894;2023-11-21T01:09:33;9.20;95.00
12819;DHT22;6474;53.474;9.894;2023-11-21T01:12:03;9.20;95.00
12819;DHT22;6474;53.474;9.894;2023-11-21T01:14:31;9.10;95.00
12819;DHT22;6474;53.474;9.894;2023-11-21T01:16:58;9.10;95.00
12819;DHT22;6474;53.474;9.894;2023-11-21T01:19:26;9.10;95.00
12819;DHT22;6474;53.474;9.894;2023-11-21T01:21:55;9.10;95.00
12819;DHT22;6474;53.474;9.894;2023-11-21T01:24:24;9.10;95.00
12819;DHT22;6474;53.474;9.894;2023-11-21T01:26:52;9.00;95.00
12819;DHT22;6474;53.474;9.894;2023-11-21T01:29:21;9.00;95.00
12819;DHT22;6474;53.474;9.894;2023-11-21T01:31:49;9.00;95.00
12819;DHT22;6474;53.474;9.894;2023-11-21T01:34:18;8.90;95.00
12819;DHT22;6474;53.474;9.894;2023-11-21T01:36:47;8.90;95.00
12819;DHT22;6474;53.474;9.894;2023-11-21T01:39:15;8.90;95.00
12819;DHT22;6474;53.474;9.894;2023-11-21T01:41:50;8.80;95.00
12819;DHT22;6474;53.474;9.894;2023-11-21T01:44:18;8.80;95.10
12819;DHT22;6474;53.474;9.894;2023-11-21T01:46:48;8.80;95.10
12819;DHT22;6474;53.474;9.894;2023-11-21T01:49:16;8.70;95.00
12819;DHT22;6474;53.474;9.894;2023-11-21T01:51:47;8.70;95.10
12819;DHT22;6474;53.474;9.894;2023-11-21T01:54:17;8.70;95.10
12819;DHT22;6474;53.474;9.894;2023-11-21T01:56:45;8.60;95.00
12819;DHT22;6474;53.474;9.894;2023-11-21T01:59:18;8.60;95.10
12819;DHT22;6474;53.474;9.894;2023-11-21T02:01:48;8.60;95.20
12819;DHT22;6474;53.474;9.894;2023-11-21T02:04:18;8.60;95.20
12819;DHT22;6474;53.474;9.894;2023-11-21T02:06:46;8.60;95.10
12819;DHT22;6474;53.474;9.894;2023-11-21T02:09:14;8.50;95.00
12819;DHT22;6474;53.474;9.894;2023-11-21T02:11:42;8.50;95.10
12819;DHT22;6474;53.474;9.894;2023-11-21T02:14:10;8.50;95.10
12819;DHT22;6474;53.474;9.894;2023-11-21T02:16:40;8.50;95.20
12819;DHT22;6474;53.474;9.894;2023-11-21T02:19:11;8.50;95.10
12819;DHT22;6474;53.474;9.894;2023-11-21T02:21:42;8.50;95.10
12819;DHT22;6474;53.474;9.894;2023-11-21T02:24:12;8.50;95.10
12819;DHT22;6474;53.474;9.894;2023-11-21T02:26:40;8.50;95.10
12819;DHT22;6474;53.474;9.894;2023-11-21T02:29:08;8.50;95.10
12819;DHT22;6474;53.474;9.894;2023-11-21T02:31:38;8.50;95.10
12819;DHT22;6474;53.474;9.894;2023-11-21T02:34:15;8.50;95.00
12819;DHT22;6474;53.474;9.894;2023-11-21T02:36:44;8.50;95.00
12819;DHT22;6474;53.474;9.894;2023-11-21T02:39:13;8.50;95.00
12819;DHT22;6474;53.474;9.894;2023-11-21T02:41:41;8.50;95.00
12819;DHT22;6474;53.474;9.894;2023-11-21T02:44:09;8.50;95.00
12819;DHT22;6474;53.474;9.894;2023-11-21T02:46:37;8.40;95.00
12819;DHT22;6474;53.474;9.894;2023-11-21T02:49:06;8.40;95.00
12819;DHT22;6474;53.474;9.894;2023-11-21T02:51:36;8.40;95.00
12819;DHT22;6474;53.474;9.894;2023-11-21T02:54:06;8.40;95.00
12819;DHT22;6474;53.474;9.894;2023-11-21T02:56:36;8.40;95.00
12819;DHT22;6474;53.474;9.894;2023-11-21T02:59:06;8.40;95.00
12819;DHT22;6474;53.474;9.894;2023-11-21T03:01:34;8.40;95.00
12819;DHT22;6474;53.474;9.894;2023-11-21T03:04:02;8.40;95.00
12819;DHT22;6474;53.474;9.894;2023-11-21T03:06:30;8.30;94.90
12819;DHT22;6474;53.474;9.894;2023-11-21T03:08:58;8.30;94.90
12819;DHT22;6474;53.474;9.894;2023-11-21T03:11:26;8.30;94.90
12819;DHT22;6474;53.474;9.894;2023-11-21T03:13:55;8.30;94.90
12819;DHT22;6474;53.474;9.894;2023-11-21T03:16:23;8.20;94.90
12819;DHT22;6474;53.474;9.894;2023-11-21T03:18:51;8.20;94.90
12819;DHT22;6474;53.474;9.894;2023-11-21T03:21:19;8.20;94.80
12819;DHT22;6474;53.474;9.894;2023-11-21T03:23:47;8.10;94.80
12819;DHT22;6474;53.474;9.894;2023-11-21T03:26:15;8.10;94.80
12819;DHT22;6474;53.474;9.894;2023-11-21T03:28:43;8.10;94.80
12819;DHT22;6474;53.474;9.894;2023-11-21T03:31:12;8.10;94.80
12819;DHT22;6474;53.474;9.894;2023-11-21T03:33:40;8.10;94.80
12819;DHT22;6474;53.474;9.894;2023-11-21T03:36:08;8.00;94.80
12819;DHT22;6474;53.474;9.894;2023-11-21T03:38:37;8.00;94.80
12819;DHT22;6474;53.474;9.894;2023-11-21T03:41:05;8.00;94.80
12819;DHT22;6474;53.474;9.894;2023-11-21T03:43:33;8.00;94.80
12819;DHT22;6474;53.474;9.894;2023-11-21T03:46:01;7.90;94.80
12819;DHT22;6474;53.474;9.894;2023-11-21T03:48:30;7.90;94.90
12819;DHT22;6474;53.474;9.894;2023-11-21T03:51:00;7.90;94.80
12819;DHT22;6474;53.474;9.894;2023-11-21T03:53:27;7.90;94.80
12819;DHT22;6474;53.474;9.894;2023-11-21T03:55:55;7.80;94.80
12819;DHT22;6474;53.474;9.894;2023-11-21T03:58:23;7.80;94.80
12819;DHT22;6474;53.474;9.894;2023-11-21T04:00:51;7.80;94.80
12819;DHT22;6474;53.474;9.894;2023-11-21T04:03:19;7.80;94.80
12819;DHT22;6474;53.474;9.894;2023-11-21T04:05:48;7.80;94.80
12819;DHT22;6474;53.474;9.894;2023-11-21T04:08:16;7.80;94.80
12819;DHT22;6474;53.474;9.894;2023-11-21T04:10:44;7.80;94.80
12819;DHT22;6474;53.474;9.894;2023-11-21T04:13:12;7.80;94.90
12819;DHT22;6474;53.474;9.894;2023-11-21T04:15:40;7.70;94.80
12819;DHT22;6474;53.474;9.894;2023-11-21T04:18:08;7.70;94.80
12819;DHT22;6474;53.474;9.894;2023-11-21T04:20:36;7.70;94.80
12819;DHT22;6474;53.474;9.894;2023-11-21T04:23:05;7.70;94.90
12819;DHT22;6474;53.474;9.894;2023-11-21T04:25:33;7.70;94.90
12819;DHT22;6474;53.474;9.894;2023-11-21T04:28:01;7.70;94.90
12819;DHT22;6474;53.474;9.894;2023-11-21T04:30:29;7.70;94.90
12819;DHT22;6474;53.474;9.894;2023-11-21T04:32:57;7.70;94.80
12819;DHT22;6474;53.474;9.894;2023-11-21T04:35:25;7.70;94.80
12819;DHT22;6474;53.474;9.894;2023-11-21T04:37:53;7.70;94.80
12819;DHT22;6474;53.474;9.894;2023-11-21T04:40:26;7.80;94.90
12819;DHT22;6474;53.474;9.894;2023-11-21T04:42:54;7.70;94.80
12819;DHT22;6474;53.474;9.894;2023-11-21T04:45:23;7.70;94.80
12819;DHT22;6474;53.474;9.894;2023-11-21T04:47:51;7.70;94.80
12819;DHT22;6474;53.474;9.894;2023-11-21T04:50:19;7.70;94.80
12819;DHT22;6474;53.474;9.894;2023-11-21T04:52:48;7.70;94.80
12819;DHT22;6474;53.474;9.894;2023-11-21T04:55:15;7.70;94.80
12819;DHT22;6474;53.474;9.894;2023-11-21T04:57:45;7.70;94.80
12819;DHT22;6474;53.474;9.894;2023-11-21T05:00:14;7.70;94.80
12819;DHT22;6474;53.474;9.894;2023-11-21T05:02:43;7.70;94.80
12819;DHT22;6474;53.474;9.894;2023-11-21T05:05:11;7.70;94.90
12819;DHT22;6474;53.474;9.894;2023-11-21T05:07:40;7.70;94.80
12819;DHT22;6474;53.474;9.894;2023-11-21T05:10:08;7.70;94.90
12819;DHT22;6474;53.474;9.894;2023-11-21T05:12:40;7.70;94.80
12819;DHT22;6474;53.474;9.894;2023-11-21T05:15:10;7.70;94.80
12819;DHT22;6474;53.474;9.894;2023-11-21T05:17:41;7.70;94.80
12819;DHT22;6474;53.474;9.894;2023-11-21T05:20:11;7.70;94.80
12819;DHT22;6474;53.474;9.894;2023-11-21T05:22:41;7.70;94.80
12819;DHT22;6474;53.474;9.894;2023-11-21T05:25:09;7.80;94.80
12819;DHT22;6474;53.474;9.894;2023-11-21T05:27:38;7.70;94.70
12819;DHT22;6474;53.474;9.894;2023-11-21T05:30:06;7.70;94.70
12819;DHT22;6474;53.474;9.894;2023-11-21T05:32:37;7.80;94.70
12819;DHT22;6474;53.474;9.894;2023-11-21T05:35:06;7.80;94.70
12819;DHT22;6474;53.474;9.894;2023-11-21T05:37:36;7.80;94.80
12819;DHT22;6474;53.474;9.894;2023-11-21T05:40:06;7.80;94.70
12819;DHT22;6474;53.474;9.894;2023-11-21T05:42:35;7.80;94.70
12819;DHT22;6474;53.474;9.894;2023-11-21T05:45:06;7.70;94.70
12819;DHT22;6474;53.474;9.894;2023-11-21T05:47:39;7.70;94.70
12819;DHT22;6474;53.474;9.894;2023-11-21T05:50:08;7.70;94.70
12819;DHT22;6474;53.474;9.894;2023-11-21T05:52:39;7.70;94.70
12819;DHT22;6474;53.474;9.894;2023-11-21T05:55:07;7.70;94.70
12819;DHT22;6474;53.474;9.894;2023-11-21T05:57:36;7.80;95.10
12819;DHT22;6474;53.474;9.894;2023-11-21T06:00:06;7.70;94.70
12819;DHT22;6474;53.474;9.894;2023-11-21T06:02:40;7.70;94.70
12819;DHT22;6474;53.474;9.894;2023-11-21T06:05:08;7.70;94.70
12819;DHT22;6474;53.474;9.894;2023-11-21T06:07:37;7.70;94.70
12819;DHT22;6474;53.474;9.894;2023-11-21T06:10:08;7.70;94.70
12819;DHT22;6474;53.474;9.894;2023-11-21T06:12:37;7.70;94.70
12819;DHT22;6474;53.474;9.894;2023-11-21T06:15:07;7.70;94.70
12819;DHT22;6474;53.474;9.894;2023-11-21T06:17:36;7.70;94.70
12819;DHT22;6474;53.474;9.894;2023-11-21T06:20:06;7.60;94.70
12819;DHT22;6474;53.474;9.894;2023-11-21T06:22:37;7.70;94.70
12819;DHT22;6474;53.474;9.894;2023-11-21T06:25:06;7.60;94.70
12819;DHT22;6474;53.474;9.894;2023-11-21T06:27:39;7.70;94.70
12819;DHT22;6474;53.474;9.894;2023-11-21T06:30:08;7.60;94.70
12819;DHT22;6474;53.474;9.894;2023-11-21T06:32:36;7.60;94.70
12819;DHT22;6474;53.474;9.894;2023-11-21T06:35:07;7.60;94.70
12819;DHT22;6474;53.474;9.894;2023-11-21T06:37:36;7.60;94.70
12819;DHT22;6474;53.474;9.894;2023-11-21T06:40:06;7.60;94.70
12819;DHT22;6474;53.474;9.894;2023-11-21T06:42:34;7.70;94.70
12819;DHT22;6474;53.474;9.894;2023-11-21T06:45:01;7.70;94.70
12819;DHT22;6474;53.474;9.894;2023-11-21T06:47:30;7.70;94.70
12819;DHT22;6474;53.474;9.894;2023-11-21T06:49:59;7.70;94.70
12819;DHT22;6474;53.474;9.894;2023-11-21T06:52:29;7.70;94.70
12819;DHT22;6474;53.474;9.894;2023-11-21T06:54:57;7.60;94.60
12819;DHT22;6474;53.474;9.894;2023-11-21T06:57:24;7.70;94.70
12819;DHT22;6474;53.474;9.894;2023-11-21T06:59:53;7.60;94.60
12819;DHT22;6474;53.474;9.894;2023-11-21T07:02:20;7.60;94.60
12819;DHT22;6474;53.474;9.894;2023-11-21T07:04:48;7.60;94.60
12819;DHT22;6474;53.474;9.894;2023-11-21T07:07:18;7.60;94.70
12819;DHT22;6474;53.474;9.894;2023-11-21T07:09:47;7.60;94.70
12819;DHT22;6474;53.474;9.894;2023-11-21T07:12:15;7.60;94.60
12819;DHT22;6474;53.474;9.894;2023-11-21T07:14:44;7.60;94.70
12819;DHT22;6474;53.474;9.894;2023-11-21T07:17:12;7.70;94.70
12819;DHT22;6474;53.474;9.894;2023-11-21T07:19:40;7.70;94.70
12819;DHT22;6474;53.474;9.894;2023-11-21T07:22:08;7.70;94.70
12819;DHT22;6474;53.474;9.894;2023-11-21T07:24:37;7.70;94.70
12819;DHT22;6474;53.474;9.894;2023-11-21T07:27:06;7.70;94.70
12819;DHT22;6474;53.474;9.894;2023-11-21T07:29:35;7.70;94.70
12819;DHT22;6474;53.474;9.894;2023-11-21T07:32:03;7.70;94.70
12819;DHT22;6474;53.474;9.894;2023-11-21T07:34:31;7.70;94.60
12819;DHT22;6474;53.474;9.894;2023-11-21T07:36:59;7.70;94.60
12819;DHT22;6474;53.474;9.894;2023-11-21T07:39:26;7.70;94.70
12819;DHT22;6474;53.474;9.894;2023-11-21T07:41:55;7.70;94.60
12819;DHT22;6474;53.474;9.894;2023-11-21T07:44:25;7.80;94.70
12819;DHT22;6474;53.474;9.894;2023-11-21T07:46:53;7.80;94.60
12819;DHT22;6474;53.474;9.894;2023-11-21T07:49:24;7.80;94.60
12819;DHT22;6474;53.474;9.894;2023-11-21T07:51:53;7.80;94.60
12819;DHT22;6474;53.474;9.894;2023-11-21T07:54:21;7.80;94.60
12819;DHT22;6474;53.474;9.894;2023-11-21T07:56:48;7.80;94.60
12819;DHT22;6474;53.474;9.894;2023-11-21T07:59:16;7.80;94.60
12819;DHT22;6474;53.474;9.894;2023-11-21T08:01:46;7.80;94.70
12819;DHT22;6474;53.474;9.894;2023-11-21T08:04:14;7.80;94.70
12819;DHT22;6474;53.474;9.894;2023-11-21T08:06:42;7.90;94.70
12819;DHT22;6474;53.474;9.894;2023-11-21T08:09:09;7.90;94.70
12819;DHT22;6474;53.474;9.894;2023-11-21T08:11:39;7.90;94.70
12819;DHT22;6474;53.474;9.894;2023-11-21T08:14:07;7.90;94.70
12819;DHT22;6474;53.474;9.894;2023-11-21T08:16:35;7.90;94.70
12819;DHT22;6474;53.474;9.894;2023-11-21T08:19:04;8.00;94.70
12819;DHT22;6474;53.474;9.894;2023-11-21T08:21:32;8.00;94.70
12819;DHT22;6474;53.474;9.894;2023-11-21T08:24:00;8.00;94.60
12819;DHT22;6474;53.474;9.894;2023-11-21T08:26:31;8.00;94.70
12819;DHT22;6474;53.474;9.894;2023-11-21T08:28:58;8.10;94.70
12819;DHT22;6474;53.474;9.894;2023-11-21T08:31:27;8.10;94.70
12819;DHT22;6474;53.474;9.894;2023-11-21T08:33:56;8.10;94.60
12819;DHT22;6474;53.474;9.894;2023-11-21T08:36:25;8.10;94.60
12819;DHT22;6474;53.474;9.894;2023-11-21T08:38:53;8.20;94.70
12819;DHT22;6474;53.474;9.894;2023-11-21T08:41:21;8.20;94.70
12819;DHT22;6474;53.474;9.894;2023-11-21T08:43:50;8.20;94.60
12819;DHT22;6474;53.474;9.894;2023-11-21T08:46:19;8.30;94.70
12819;DHT22;6474;53.474;9.894;2023-11-21T08:48:47;8.30;94.70
12819;DHT22;6474;53.474;9.894;2023-11-21T08:51:15;8.30;94.70
12819;DHT22;6474;53.474;9.894;2023-11-21T08:53:45;8.30;94.60
12819;DHT22;6474;53.474;9.894;2023-11-21T08:56:14;8.30;94.60
12819;DHT22;6474;53.474;9.894;2023-11-21T08:58:42;8.30;94.60
12819;DHT22;6474;53.474;9.894;2023-11-21T09:01:10;8.30;94.60
12819;DHT22;6474;53.474;9.894;2023-11-21T09:03:39;8.40;94.70
12819;DHT22;6474;53.474;9.894;2023-11-21T09:06:07;8.40;94.60
12819;DHT22;6474;53.474;9.894;2023-11-21T09:08:36;8.30;94.80
12819;DHT22;6474;53.474;9.894;2023-11-21T09:11:06;8.30;94.50
12819;DHT22;6474;53.474;9.894;2023-11-21T09:13:34;8.30;94.60
12819;DHT22;6474;53.474;9.894;2023-11-21T09:16:03;8.30;94.60
12819;DHT22;6474;53.474;9.894;2023-11-21T09:18:32;8.30;94.60
12819;DHT22;6474;53.474;9.894;2023-11-21T09:21:00;8.20;94.50
12819;DHT22;6474;53.474;9.894;2023-11-21T09:23:28;8.30;94.60
12819;DHT22;6474;53.474;9.894;2023-11-21T09:25:57;8.30;94.60
12819;DHT22;6474;53.474;9.894;2023-11-21T09:28:28;8.30;94.60
12819;DHT22;6474;53.474;9.894;2023-11-21T09:30:55;8.20;94.50
12819;DHT22;6474;53.474;9.894;2023-11-21T09:33:24;8.20;94.60
12819;DHT22;6474;53.474;9.894;2023-11-21T09:35:52;8.20;94.60
12819;DHT22;6474;53.474;9.894;2023-11-21T09:38:24;8.20;94.60
12819;DHT22;6474;53.474;9.894;2023-11-21T09:40:52;8.20;94.60
12819;DHT22;6474;53.474;9.894;2023-11-21T09:43:21;8.20;94.60
12819;DHT22;6474;53.474;9.894;2023-11-21T09:45:56;8.20;94.60
12819;DHT22;6474;53.474;9.894;2023-11-21T09:48:28;8.20;94.60
12819;DHT22;6474;53.474;9.894;2023-11-21T09:50:57;8.20;94.70
12819;DHT22;6474;53.474;9.894;2023-11-21T09:53:27;8.20;94.70
12819;DHT22;6474;53.474;9.894;2023-11-21T09:56:01;8.20;94.70
12819;DHT22;6474;53.474;9.894;2023-11-21T09:58:29;8.30;94.70
12819;DHT22;6474;53.474;9.894;2023-11-21T10:01:01;8.30;94.70
12819;DHT22;6474;53.474;9.894;2023-11-21T10:03:35;8.30;94.60
12819;DHT22;6474;53.474;9.894;2023-11-21T10:06:05;8.30;94.60
12819;DHT22;6474;53.474;9.894;2023-11-21T10:08:35;8.30;94.60
12819;DHT22;6474;53.474;9.894;2023-11-21T10:11:20;8.30;94.50
12819;DHT22;6474;53.474;9.894;2023-11-21T10:13:49;8.30;94.90
12819;DHT22;6474;53.474;9.894;2023-11-21T10:16:22;8.30;94.70
12819;DHT22;6474;53.474;9.894;2023-11-21T10:18:53;8.30;94.70
12819;DHT22;6474;53.474;9.894;2023-11-21T10:21:37;8.30;94.70
12819;DHT22;6474;53.474;9.894;2023-11-21T10:24:06;8.40;94.70
12819;DHT22;6474;53.474;9.894;2023-11-21T10:26:34;8.40;94.70
12819;DHT22;6474;53.474;9.894;2023-11-21T10:29:16;8.40;94.70
12819;DHT22;6474;53.474;9.894;2023-11-21T10:31:49;8.50;94.80
12819;DHT22;6474;53.474;9.894;2023-11-21T10:34:18;8.50;94.80
12819;DHT22;6474;53.474;9.894;2023-11-21T10:36:47;8.60;94.80
12819;DHT22;6474;53.474;9.894;2023-11-21T10:39:17;8.70;94.80
12819;DHT22;6474;53.474;9.894;2023-11-21T10:41:45;8.70;94.70
12819;DHT22;6474;53.474;9.894;2023-11-21T10:44:14;8.80;94.60
12819;DHT22;6474;53.474;9.894;2023-11-21T10:46:48;8.80;94.60
12819;DHT22;6474;53.474;9.894;2023-11-21T10:49:18;8.70;94.50
12819;DHT22;6474;53.474;9.894;2023-11-21T10:51:46;8.70;94.50
12819;DHT22;6474;53.474;9.894;2023-11-21T10:54:18;8.70;94.50
12819;DHT22;6474;53.474;9.894;2023-11-21T10:56:49;8.60;94.60
12819;DHT22;6474;53.474;9.894;2023-11-21T10:59:18;8.60;94.60
12819;DHT22;6474;53.474;9.894;2023-11-21T11:01:49;8.60;94.70
12819;DHT22;6474;53.474;9.894;2023-11-21T11:04:19;8.60;94.70
12819;DHT22;6474;53.474;9.894;2023-11-21T11:06:51;8.70;94.80
12819;DHT22;6474;53.474;9.894;2023-11-21T11:09:22;8.60;94.70
12819;DHT22;6474;53.474;9.894;2023-11-21T11:11:51;8.70;94.80
12819;DHT22;6474;53.474;9.894;2023-11-21T11:14:20;8.70;95.10
12819;DHT22;6474;53.474;9.894;2023-11-21T11:16:54;8.70;94.80
12819;DHT22;6474;53.474;9.894;2023-11-21T11:19:22;8.70;94.70
12819;DHT22;6474;53.474;9.894;2023-11-21T11:21:59;8.70;94.60
12819;DHT22;6474;53.474;9.894;2023-11-21T11:24:41;8.70;94.50
12819;DHT22;6474;53.474;9.894;2023-11-21T11:27:21;8.60;94.40
12819;DHT22;6474;53.474;9.894;2023-11-21T11:30:10;8.60;94.30
12819;DHT22;6474;53.474;9.894;2023-11-21T11:32:48;8.50;94.40
12819;DHT22;6474;53.474;9.894;2023-11-21T11:35:26;8.50;94.50
12819;DHT22;6474;53.474;9.894;2023-11-21T11:37:58;8.50;94.60
12819;DHT22;6474;53.474;9.894;2023-11-21T11:40:39;8.50;94.60
12819;DHT22;6474;53.474;9.894;2023-11-21T11:43:07;8.50;94.70
12819;DHT22;6474;53.474;9.894;2023-11-21T11:45:36;8.50;94.60
12819;DHT22;6474;53.474;9.894;2023-11-21T11:48:11;8.50;94.70
12819;DHT22;6474;53.474;9.894;2023-11-21T11:53:26;8.60;94.70
12819;DHT22;6474;53.474;9.894;2023-11-21T11:55:58;8.60;94.70
12819;DHT22;6474;53.474;9.894;2023-11-21T11:58:47;8.60;94.60
12819;DHT22;6474;53.474;9.894;2023-11-21T12:01:17;8.60;94.70
12819;DHT22;6474;53.474;9.894;2023-11-21T12:06:52;8.70;94.70
12819;DHT22;6474;53.474;9.894;2023-11-21T12:09:22;8.70;94.70
12819;DHT22;6474;53.474;9.894;2023-11-21T12:11:53;8.70;94.70
12819;DHT22;6474;53.474;9.894;2023-11-21T12:14:23;8.80;94.80
12819;DHT22;6474;53.474;9.894;2023-11-21T12:16:52;8.80;94.80
12819;DHT22;6474;53.474;9.894;2023-11-21T12:19:20;8.90;94.80
12819;DHT22;6474;53.474;9.894;2023-11-21T12:21:49;8.90;94.70
12819;DHT22;6474;53.474;9.894;2023-11-21T12:24:20;8.90;94.70
12819;DHT22;6474;53.474;9.894;2023-11-21T12:26:50;8.90;94.70
12819;DHT22;6474;53.474;9.894;2023-11-21T12:29:19;8.90;94.60
12819;DHT22;6474;53.474;9.894;2023-11-21T12:31:49;8.90;94.60
12819;DHT22;6474;53.474;9.894;2023-11-21T12:34:17;8.80;94.50
12819;DHT22;6474;53.474;9.894;2023-11-21T12:36:46;8.80;94.50
12819;DHT22;6474;53.474;9.894;2023-11-21T12:39:13;8.80;94.40
12819;DHT22;6474;53.474;9.894;2023-11-21T12:41:43;8.70;94.40
12819;DHT22;6474;53.474;9.894;2023-11-21T12:44:12;8.60;94.40
12819;DHT22;6474;53.474;9.894;2023-11-21T12:46:42;8.60;94.20
12819;DHT22;6474;53.474;9.894;2023-11-21T12:49:13;8.50;94.40
12819;DHT22;6474;53.474;9.894;2023-11-21T12:51:45;8.50;94.50
12819;DHT22;6474;53.474;9.894;2023-11-21T12:54:13;8.40;94.50
12819;DHT22;6474;53.474;9.894;2023-11-21T12:56:46;8.40;94.50
12819;DHT22;6474;53.474;9.894;2023-11-21T12:59:15;8.40;94.50
12819;DHT22;6474;53.474;9.894;2023-11-21T13:01:44;8.30;94.50
12819;DHT22;6474;53.474;9.894;2023-11-21T13:04:13;8.30;94.50
12819;DHT22;6474;53.474;9.894;2023-11-21T13:06:41;8.30;94.60
12819;DHT22;6474;53.474;9.894;2023-11-21T13:09:09;8.30;94.50
12819;DHT22;6474;53.474;9.894;2023-11-21T13:11:37;8.30;94.50
12819;DHT22;6474;53.474;9.894;2023-11-21T13:14:10;8.20;94.40
12819;DHT22;6474;53.474;9.894;2023-11-21T13:16:39;8.20;94.50
12819;DHT22;6474;53.474;9.894;2023-11-21T13:19:13;8.10;94.40
12819;DHT22;6474;53.474;9.894;2023-11-21T13:21:41;8.10;94.40
12819;DHT22;6474;53.474;9.894;2023-11-21T13:24:09;8.10;94.40
12819;DHT22;6474;53.474;9.894;2023-11-21T13:26:38;8.00;94.40
12819;DHT22;6474;53.474;9.894;2023-11-21T13:29:05;8.00;94.80
12819;DHT22;6474;53.474;9.894;2023-11-21T13:31:35;7.90;94.50
12819;DHT22;6474;53.474;9.894;2023-11-21T13:34:04;7.90;94.50
12819;DHT22;6474;53.474;9.894;2023-11-21T13:36:35;7.90;94.50
12819;DHT22;6474;53.474;9.894;2023-11-21T13:39:03;7.90;94.50
12819;DHT22;6474;53.474;9.894;2023-11-21T13:41:35;7.90;94.50
12819;DHT22;6474;53.474;9.894;2023-11-21T13:44:05;7.90;94.50
12819;DHT22;6474;53.474;9.894;2023-11-21T13:46:44;7.80;94.40
12819;DHT22;6474;53.474;9.894;2023-11-21T13:49:13;7.80;94.40
12819;DHT22;6474;53.474;9.894;2023-11-21T13:51:42;7.70;94.40
12819;DHT22;6474;53.474;9.894;2023-11-21T13:54:12;7.70;94.40
12819;DHT22;6474;53.474;9.894;2023-11-21T13:56:43;7.70;94.40
12819;DHT22;6474;53.474;9.894;2023-11-21T13:59:17;7.70;94.50
12819;DHT22;6474;53.474;9.894;2023-11-21T14:01:50;7.70;94.40
12819;DHT22;6474;53.474;9.894;2023-11-21T14:04:26;7.80;94.50
12819;DHT22;6474;53.474;9.894;2023-11-21T14:07:11;7.70;94.50
12819;DHT22;6474;53.474;9.894;2023-11-21T14:09:55;7.70;94.40
12819;DHT22;6474;53.474;9.894;2023-11-21T14:12:23;7.70;94.40
12819;DHT22;6474;53.474;9.894;2023-11-21T14:14:52;7.70;94.30
12819;DHT22;6474;53.474;9.894;2023-11-21T14:17:23;7.70;94.30
12819;DHT22;6474;53.474;9.894;2023-11-21T14:19:51;7.70;94.40
12819;DHT22;6474;53.474;9.894;2023-11-21T14:22:19;7.70;94.30
12819;DHT22;6474;53.474;9.894;2023-11-21T14:24:47;7.60;94.30
12819;DHT22;6474;53.474;9.894;2023-11-21T14:27:17;7.60;94.30
12819;DHT22;6474;53.474;9.894;2023-11-21T14:29:44;7.60;94.30
12819;DHT22;6474;53.474;9.894;2023-11-21T14:32:12;7.60;94.30
12819;DHT22;6474;53.474;9.894;2023-11-21T14:34:42;7.50;94.30
12819;DHT22;6474;53.474;9.894;2023-11-21T14:37:13;7.50;94.30
12819;DHT22;6474;53.474;9.894;2023-11-21T14:39:42;7.50;94.30
12819;DHT22;6474;53.474;9.894;2023-11-21T14:42:12;7.50;94.30
12819;DHT22;6474;53.474;9.894;2023-11-21T14:44:41;7.40;94.30
12819;DHT22;6474;53.474;9.894;2023-11-21T14:47:10;7.40;94.30
12819;DHT22;6474;53.474;9.894;2023-11-21T14:49:44;7.40;94.30
12819;DHT22;6474;53.474;9.894;2023-11-21T14:52:23;7.40;94.30
12819;DHT22;6474;53.474;9.894;2023-11-21T14:55:01;7.30;94.20
12819;DHT22;6474;53.474;9.894;2023-11-21T14:57:43;7.30;94.20
12819;DHT22;6474;53.474;9.894;2023-11-21T15:00:17;7.30;94.20
12819;DHT22;6474;53.474;9.894;2023-11-21T15:03:05;7.30;94.30
12819;DHT22;6474;53.474;9.894;2023-11-21T15:05:35;7.20;94.60
12819;DHT22;6474;53.474;9.894;2023-11-21T15:08:02;7.20;94.30
12819;DHT22;6474;53.474;9.894;2023-11-21T15:10:45;7.20;94.30
12819;DHT22;6474;53.474;9.894;2023-11-21T15:13:14;7.20;94.20
12819;DHT22;6474;53.474;9.894;2023-11-21T15:15:42;7.20;94.30
12819;DHT22;6474;53.474;9.894;2023-11-21T15:18:10;7.20;94.20
12819;DHT22;6474;53.474;9.894;2023-11-21T15:20:41;7.10;94.20
12819;DHT22;6474;53.474;9.894;2023-11-21T15:23:10;7.10;94.20
12819;DHT22;6474;53.474;9.894;2023-11-21T15:25:39;7.10;94.20
12819;DHT22;6474;53.474;9.894;2023-11-21T15:28:07;7.10;94.20
12819;DHT22;6474;53.474;9.894;2023-11-21T15:30:35;7.10;94.20
12819;DHT22;6474;53.474;9.894;2023-11-21T15:33:03;7.10;94.20
12819;DHT22;6474;53.474;9.894;2023-11-21T15:35:32;7.10;94.20
12819;DHT22;6474;53.474;9.894;2023-11-21T15:38:01;7.10;94.20
12819;DHT22;6474;53.474;9.894;2023-11-21T15:40:29;7.10;94.20
12819;DHT22;6474;53.474;9.894;2023-11-21T15:42:58;7.00;94.20
12819;DHT22;6474;53.474;9.894;2023-11-21T15:45:26;7.00;94.20
12819;DHT22;6474;53.474;9.894;2023-11-21T15:47:54;7.00;94.50
12819;DHT22;6474;53.474;9.894;2023-11-21T15:50:23;7.00;94.10
12819;DHT22;6474;53.474;9.894;2023-11-21T15:52:51;7.00;94.10
12819;DHT22;6474;53.474;9.894;2023-11-21T15:55:25;6.90;94.10
12819;DHT22;6474;53.474;9.894;2023-11-21T15:57:53;6.90;94.20
12819;DHT22;6474;53.474;9.894;2023-11-21T16:00:21;6.80;94.20
12819;DHT22;6474;53.474;9.894;2023-11-21T16:02:51;6.80;94.20
12819;DHT22;6474;53.474;9.894;2023-11-21T16:05:21;6.80;94.20
12819;DHT22;6474;53.474;9.894;2023-11-21T16:07:52;6.80;94.20
12819;DHT22;6474;53.474;9.894;2023-11-21T16:10:21;6.80;94.20
12819;DHT22;6474;53.474;9.894;2023-11-21T16:12:51;6.80;94.20
12819;DHT22;6474;53.474;9.894;2023-11-21T16:15:19;6.80;94.30
12819;DHT22;6474;53.474;9.894;2023-11-21T16:17:47;6.80;94.30
12819;DHT22;6474;53.474;9.894;2023-11-21T16:20:15;6.80;94.30
12819;DHT22;6474;53.474;9.894;2023-11-21T16:22:43;6.80;94.30